createdAt,value
2023-02-03T00:02:13.346Z,47.70
2023-02-03T00:04:39.989Z,47.70
2023-02-03T00:07:13.272Z,47.70
2023-02-03T00:09:42.781Z,47.60
2023-02-03T00:12:09.541Z,47.70
2023-02-03T00:14:38.452Z,47.70
2023-02-03T00:17:05.809Z,47.60
2023-02-03T00:19:32.741Z,47.60
2023-02-03T00:21:59.984Z,47.60
2023-02-03T00:24:29.757Z,47.60
2023-02-03T00:26:56.667Z,47.70
2023-02-03T00:29:25.925Z,48.30
2023-02-03T00:31:54.036Z,47.70
2023-02-03T00:34:21.683Z,47.70
2023-02-03T00:36:48.441Z,47.70
2023-02-03T00:39:16.047Z,47.60
2023-02-03T00:41:43.835Z,47.70
2023-02-03T00:44:16.042Z,47.60
2023-02-03T00:46:48.632Z,47.60
2023-02-03T00:49:18.806Z,47.70
2023-02-03T00:51:48.762Z,47.50
2023-02-03T00:54:15.409Z,47.60
2023-02-03T00:56:42.667Z,47.60
2023-02-03T00:59:09.668Z,47.60
2023-02-03T01:01:36.311Z,47.50
2023-02-03T01:04:06.025Z,47.50
2023-02-03T01:06:33.072Z,47.60
2023-02-03T01:09:01.635Z,47.50
2023-02-03T01:11:28.819Z,47.60
2023-02-03T01:13:56.857Z,47.60
2023-02-03T01:16:24.420Z,47.60
2023-02-03T01:18:51.374Z,47.60
2023-02-03T01:21:30.393Z,47.50
2023-02-03T01:23:57.336Z,47.60
2023-02-03T01:26:24.629Z,47.60
2023-02-03T01:29:00.184Z,47.60
2023-02-03T01:31:40.385Z,47.70
2023-02-03T01:34:07.734Z,47.50
2023-02-03T01:36:34.570Z,47.70
2023-02-03T01:39:01.313Z,47.60
2023-02-03T01:41:28.823Z,47.60
2023-02-03T01:43:56.008Z,47.50
2023-02-03T01:46:24.924Z,47.60
2023-02-03T01:48:52.330Z,47.60
2023-02-03T01:51:19.187Z,47.50
2023-02-03T01:53:45.879Z,47.50
2023-02-03T01:56:12.492Z,47.60
2023-02-03T01:58:41.284Z,47.60
2023-02-03T02:01:10.361Z,47.60
2023-02-03T02:03:41.837Z,47.40
2023-02-03T02:06:09.241Z,47.60
2023-02-03T02:08:35.987Z,47.50
2023-02-03T02:11:03.071Z,47.60
2023-02-03T02:13:30.352Z,47.50
2023-02-03T02:16:21.460Z,47.50
2023-02-03T02:18:54.724Z,47.60
2023-02-03T02:21:30.601Z,47.50
2023-02-03T02:24:12.799Z,47.60
2023-02-03T02:26:58.475Z,47.60
2023-02-03T02:29:25.192Z,47.60
2023-02-03T02:32:10.968Z,47.50
2023-02-03T02:34:40.875Z,47.50
2023-02-03T02:37:30.808Z,47.60
2023-02-03T02:40:00.914Z,47.50
2023-02-03T02:42:48.390Z,47.50
2023-02-03T02:45:18.044Z,47.50
2023-02-03T02:47:45.134Z,47.50
2023-02-03T02:50:31.906Z,47.60
2023-02-03T02:53:01.698Z,47.60
2023-02-03T02:55:29.267Z,47.60
2023-02-03T02:57:57.665Z,47.60
2023-02-03T03:00:24.864Z,47.50
2023-02-03T03:02:52.009Z,47.50
2023-02-03T03:05:18.841Z,47.80
2023-02-03T03:07:48.748Z,47.50
2023-02-03T03:10:17.014Z,47.50
2023-02-03T03:12:47.655Z,47.40
2023-02-03T03:15:19.772Z,47.30
2023-02-03T03:17:51.819Z,47.50
2023-02-03T03:20:20.318Z,47.40
2023-02-03T03:22:49.314Z,47.50
2023-02-03T03:25:17.095Z,47.50
2023-02-03T03:27:49.733Z,47.40
2023-02-03T03:30:23.750Z,47.40
2023-02-03T03:32:50.741Z,47.50
2023-02-03T03:35:17.583Z,47.40
2023-02-03T03:37:48.282Z,47.50
2023-02-03T03:40:20.583Z,47.40
2023-02-03T03:42:57.941Z,47.50
2023-02-03T03:45:26.177Z,47.50
2023-02-03T03:48:06.510Z,47.60
2023-02-03T03:50:40.021Z,47.40
2023-02-03T03:53:06.650Z,47.70
2023-02-03T03:55:42.555Z,47.50
2023-02-03T03:58:13.208Z,47.50
2023-02-03T04:00:40.140Z,47.50
2023-02-03T04:03:17.682Z,47.50
2023-02-03T04:05:45.328Z,47.50
2023-02-03T04:08:12.011Z,47.40
2023-02-03T04:10:39.981Z,47.40
2023-02-03T04:13:07.113Z,47.40
2023-02-03T04:15:34.144Z,47.40
2023-02-03T04:18:09.661Z,47.40
2023-02-03T04:20:38.149Z,47.40
2023-02-03T04:23:05.141Z,47.40
2023-02-03T04:25:31.739Z,47.40
2023-02-03T04:27:58.440Z,47.40
2023-02-03T04:30:27.323Z,47.40
2023-02-03T04:32:54.216Z,47.30
2023-02-03T04:35:21.481Z,47.40
2023-02-03T04:37:52.456Z,47.40
2023-02-03T04:40:19.251Z,47.30
2023-02-03T04:42:45.962Z,47.40
2023-02-03T04:45:13.031Z,47.30
2023-02-03T04:47:40.318Z,47.40
2023-02-03T04:50:10.493Z,47.40
2023-02-03T04:52:37.151Z,47.40
2023-02-03T04:55:04.215Z,47.50
2023-02-03T04:57:31.745Z,47.40
2023-02-03T04:59:58.335Z,47.20
2023-02-03T05:02:26.073Z,47.50
2023-02-03T05:04:54.271Z,47.50
2023-02-03T05:07:23.968Z,47.50
2023-02-03T05:09:50.938Z,47.40
2023-02-03T05:12:17.852Z,47.50
2023-02-03T05:14:44.513Z,47.40
2023-02-03T05:17:11.117Z,47.40
2023-02-03T05:19:40.706Z,47.40
2023-02-03T05:22:07.918Z,47.40
2023-02-03T05:24:35.223Z,47.40
2023-02-03T05:27:02.678Z,47.40
2023-02-03T05:29:29.636Z,47.40
2023-02-03T05:31:59.338Z,47.40
2023-02-03T05:34:26.378Z,47.40
2023-02-03T05:36:53.220Z,47.60
2023-02-03T05:39:20.432Z,47.40
2023-02-03T05:41:53.330Z,47.60
2023-02-03T05:44:24.695Z,47.50
2023-02-03T05:46:52.809Z,47.60
2023-02-03T05:49:22.021Z,47.60
2023-02-03T05:51:48.864Z,47.50
2023-02-03T05:54:16.699Z,47.70
2023-02-03T05:56:43.611Z,47.60
2023-02-03T05:59:10.356Z,47.60
2023-02-03T06:01:38.303Z,47.70
2023-02-03T06:04:05.260Z,47.60
2023-02-03T06:06:35.860Z,47.70
2023-02-03T06:09:03.744Z,47.40
2023-02-03T06:11:30.504Z,47.70
2023-02-03T06:13:58.701Z,47.70
2023-02-03T06:16:30.195Z,48.20
2023-02-03T06:19:01.169Z,49.00
2023-02-03T06:21:28.024Z,48.10
2023-02-03T06:23:55.988Z,48.30
2023-02-03T06:26:23.301Z,48.20
2023-02-03T06:28:49.965Z,48.20
2023-02-03T06:31:19.478Z,48.20
2023-02-03T06:33:46.279Z,48.10
2023-02-03T06:36:13.187Z,48.20
2023-02-03T06:38:40.076Z,48.10
2023-02-03T06:41:07.214Z,48.10
2023-02-03T06:43:35.738Z,48.10
2023-02-03T06:46:03.062Z,48.00
2023-02-03T06:48:30.254Z,47.90
2023-02-03T06:51:00.382Z,47.90
2023-02-03T06:53:27.328Z,47.90
2023-02-03T06:55:54.236Z,48.00
2023-02-03T06:58:20.936Z,47.90
2023-02-03T07:00:47.608Z,48.00
2023-02-03T07:03:14.311Z,48.00
2023-02-03T07:05:41.393Z,48.00
2023-02-03T07:08:08.156Z,48.00
2023-02-03T07:10:34.815Z,47.90
2023-02-03T07:13:05.115Z,47.90
2023-02-03T07:15:31.756Z,47.90
2023-02-03T07:18:00.570Z,47.90
2023-02-03T07:20:29.167Z,48.00
2023-02-03T07:22:56.895Z,48.00
2023-02-03T07:25:24.081Z,47.90
2023-02-03T07:27:50.804Z,47.90
2023-02-03T07:30:18.049Z,47.90
2023-02-03T07:32:53.005Z,47.90
2023-02-03T07:35:20.087Z,48.00
2023-02-03T07:37:46.847Z,48.00
2023-02-03T07:40:15.821Z,47.90
2023-02-03T07:42:46.378Z,47.90
2023-02-03T07:45:13.406Z,47.90
2023-02-03T07:47:40.928Z,47.80
2023-02-03T07:50:08.016Z,47.90
2023-02-03T07:52:34.925Z,47.90
2023-02-03T07:55:02.170Z,47.90
2023-02-03T07:57:28.891Z,47.80
2023-02-03T08:00:00.718Z,47.90
2023-02-03T08:02:27.643Z,47.90
2023-02-03T08:04:58.274Z,47.70
2023-02-03T08:07:32.420Z,47.90
2023-02-03T08:09:59.328Z,47.70
2023-02-03T08:12:26.080Z,47.90
2023-02-03T08:14:52.916Z,47.90
2023-02-03T08:17:19.549Z,47.80
2023-02-03T08:19:46.530Z,47.80
2023-02-03T08:22:19.195Z,47.80
2023-02-03T08:24:54.993Z,47.80
2023-02-03T08:27:22.299Z,47.80
2023-02-03T08:29:49.397Z,47.80
2023-02-03T08:32:17.274Z,47.70
2023-02-03T08:34:47.178Z,47.70
2023-02-03T08:37:14.866Z,47.70
2023-02-03T08:39:42.010Z,47.70
2023-02-03T08:42:08.903Z,47.70
2023-02-03T08:44:35.984Z,47.70
2023-02-03T08:47:03.294Z,47.70
2023-02-03T08:49:30.047Z,47.70
2023-02-03T08:51:56.892Z,47.60
2023-02-03T08:54:23.808Z,47.60
2023-02-03T08:56:50.624Z,47.60
2023-02-03T08:59:17.579Z,47.60
2023-02-03T09:01:48.617Z,47.60
2023-02-03T09:04:26.316Z,47.60
2023-02-03T09:06:54.992Z,47.60
2023-02-03T09:09:29.085Z,47.50
2023-02-03T09:12:02.282Z,47.50
2023-02-03T09:14:29.671Z,47.50
2023-02-03T09:16:56.671Z,47.50
2023-02-03T09:19:23.875Z,47.50
2023-02-03T09:21:51.386Z,47.40
2023-02-03T09:24:18.480Z,47.50
2023-02-03T09:26:45.566Z,47.50
2023-02-03T09:29:12.196Z,47.50
2023-02-03T09:31:38.922Z,47.50
2023-02-03T09:34:05.551Z,47.40
2023-02-03T09:36:32.347Z,47.40
2023-02-03T09:39:01.846Z,47.40
2023-02-03T09:41:37.991Z,47.40
2023-02-03T09:44:24.451Z,47.50
2023-02-03T09:46:52.473Z,47.40
2023-02-03T09:49:23.734Z,47.50
2023-02-03T09:52:11.028Z,47.40
2023-02-03T09:54:41.943Z,47.40
2023-02-03T09:57:25.275Z,47.40
2023-02-03T09:59:52.245Z,47.50
2023-02-03T10:02:40.067Z,47.40
2023-02-03T10:05:11.143Z,47.40
2023-02-03T10:07:51.199Z,47.40
2023-02-03T10:10:26.999Z,47.40
2023-02-03T10:12:57.027Z,47.40
2023-02-03T10:15:42.564Z,47.40
2023-02-03T10:18:28.846Z,47.40
2023-02-03T10:20:57.251Z,47.30
2023-02-03T10:23:28.525Z,47.30
2023-02-03T10:25:59.365Z,47.30
2023-02-03T10:28:49.140Z,47.40
2023-02-03T10:31:17.822Z,47.30
2023-02-03T10:33:44.920Z,47.30
2023-02-03T10:36:23.936Z,47.30
2023-02-03T10:38:57.387Z,47.30
2023-02-03T10:41:24.573Z,47.30
2023-02-03T10:43:55.528Z,47.30
2023-02-03T10:46:27.616Z,47.30
2023-02-03T10:48:57.710Z,47.40
2023-02-03T10:51:43.517Z,47.30
2023-02-03T10:54:30.573Z,47.30
2023-02-03T10:57:07.010Z,47.30
2023-02-03T10:59:36.428Z,47.30
2023-02-03T11:02:29.580Z,47.30
2023-02-03T11:05:32.632Z,47.30
2023-02-03T11:08:00.591Z,47.30
2023-02-03T11:10:37.854Z,47.00
2023-02-03T11:16:02.907Z,47.10
2023-02-03T11:18:35.837Z,47.00
2023-02-03T11:21:14.943Z,47.00
2023-02-03T11:23:55.339Z,47.00
2023-02-03T11:26:27.710Z,47.00
2023-02-03T11:28:56.231Z,46.90
2023-02-03T11:31:28.707Z,47.00
2023-02-03T11:33:57.269Z,46.80
2023-02-03T11:36:31.518Z,47.00
2023-02-03T11:39:36.056Z,46.90
2023-02-03T11:42:21.309Z,47.00
2023-02-03T11:44:48.144Z,46.80
2023-02-03T11:47:16.857Z,47.00
2023-02-03T11:49:56.315Z,46.80
2023-02-03T11:52:26.079Z,46.90
2023-02-03T11:55:00.077Z,46.90
2023-02-03T11:57:49.692Z,46.80
2023-02-03T12:00:19.872Z,46.90
2023-02-03T12:02:49.658Z,46.90
2023-02-03T12:05:35.681Z,46.90
2023-02-03T12:08:22.333Z,47.00
2023-02-03T12:10:58.752Z,46.90
2023-02-03T12:13:44.267Z,47.00
2023-02-03T12:16:19.707Z,47.00
2023-02-03T12:19:02.788Z,46.90
2023-02-03T12:21:33.336Z,47.00
2023-02-03T12:24:18.384Z,46.80
2023-02-03T12:26:54.462Z,46.90
2023-02-03T12:29:33.802Z,47.00
2023-02-03T12:32:19.119Z,47.00
2023-02-03T12:34:46.082Z,47.00
2023-02-03T12:37:14.177Z,46.90
2023-02-03T12:39:58.834Z,46.90
2023-02-03T12:42:39.953Z,46.90
2023-02-03T12:45:16.242Z,46.90
2023-02-03T12:47:48.263Z,46.90
2023-02-03T12:50:35.279Z,47.00
2023-02-03T12:53:13.170Z,47.00
2023-02-03T12:55:42.050Z,47.00
2023-02-03T12:58:11.875Z,46.90
2023-02-03T13:00:59.414Z,46.90
2023-02-03T13:03:41.445Z,46.80
2023-02-03T13:06:23.458Z,46.90
2023-02-03T13:09:09.722Z,46.90
2023-02-03T13:11:53.131Z,47.00
2023-02-03T13:14:19.793Z,47.00
2023-02-03T13:16:53.488Z,47.60
2023-02-03T13:19:23.179Z,46.80
2023-02-03T13:21:49.951Z,47.00
2023-02-03T13:24:16.868Z,46.80
2023-02-03T13:26:57.979Z,46.90
2023-02-03T13:32:58.847Z,47.00
2023-02-03T13:35:34.245Z,47.00
2023-02-03T13:38:21.339Z,47.60
2023-02-03T13:44:28.185Z,46.80
2023-02-03T13:46:56.973Z,47.50
2023-02-03T13:49:36.809Z,46.90
2023-02-03T13:52:04.470Z,46.90
2023-02-03T13:54:38.075Z,46.80
2023-02-03T13:57:06.763Z,46.90
2023-02-03T13:59:46.021Z,46.80
2023-02-03T14:02:21.975Z,46.90
2023-02-03T14:04:48.799Z,46.90
2023-02-03T14:07:40.662Z,46.80
2023-02-03T14:10:14.169Z,46.90
2023-02-03T14:12:50.499Z,46.80
2023-02-03T14:15:29.223Z,46.90
2023-02-03T14:18:03.639Z,46.90
2023-02-03T14:20:43.652Z,46.80
2023-02-03T14:23:39.774Z,46.90
2023-02-03T14:26:06.819Z,47.00
2023-02-03T14:28:43.765Z,46.90
2023-02-03T14:31:23.619Z,46.90
2023-02-03T14:34:08.511Z,46.80
2023-02-03T14:36:35.624Z,47.00
2023-02-03T14:39:04.719Z,47.00
2023-02-03T14:41:47.644Z,46.90
2023-02-03T14:44:23.703Z,46.90
2023-02-03T14:47:04.668Z,46.80
2023-02-03T14:49:34.859Z,47.40
2023-02-03T14:52:07.457Z,46.90
2023-02-03T14:54:54.085Z,46.90
2023-02-03T14:57:31.063Z,46.90
2023-02-03T14:59:59.206Z,46.90
2023-02-03T15:02:27.612Z,46.90
2023-02-03T15:05:33.584Z,46.80
2023-02-03T15:08:02.626Z,46.90
2023-02-03T15:10:30.684Z,47.60
2023-02-03T15:12:58.340Z,46.90
2023-02-03T15:15:29.354Z,46.90
2023-02-03T15:17:58.872Z,46.90
2023-02-03T15:20:31.912Z,46.90
2023-02-03T15:22:58.822Z,46.90
2023-02-03T15:25:26.934Z,46.90
2023-02-03T15:27:54.172Z,47.00
2023-02-03T15:30:21.128Z,46.90
2023-02-03T15:32:50.305Z,46.90
2023-02-03T15:35:18.439Z,46.90
2023-02-03T15:37:53.224Z,46.90
2023-02-03T15:40:20.704Z,46.90
2023-02-03T15:42:49.557Z,47.00
2023-02-03T15:45:26.638Z,47.10
2023-02-03T15:48:13.717Z,47.30
2023-02-03T15:50:59.435Z,47.30
2023-02-03T15:53:45.417Z,47.00
2023-02-03T15:56:36.395Z,47.20
2023-02-03T15:59:05.236Z,47.00
2023-02-03T16:01:32.036Z,47.00
2023-02-03T16:03:59.452Z,47.00
2023-02-03T16:06:27.705Z,47.80
2023-02-03T16:08:55.005Z,47.10
2023-02-03T16:11:35.776Z,47.20
2023-02-03T16:14:03.666Z,47.30
2023-02-03T16:16:33.082Z,47.40
2023-02-03T16:19:01.703Z,48.10
2023-02-03T16:21:31.469Z,47.40
2023-02-03T16:23:58.820Z,47.40
2023-02-03T16:26:27.410Z,47.50
2023-02-03T16:29:28.426Z,47.60
2023-02-03T16:32:14.162Z,47.50
2023-02-03T16:34:59.679Z,47.60
2023-02-03T16:37:45.128Z,47.60
2023-02-03T16:40:30.626Z,47.60
2023-02-03T16:43:16.444Z,47.60
2023-02-03T16:46:02.027Z,47.60
2023-02-03T16:48:47.558Z,47.70
2023-02-03T16:51:16.007Z,47.60
2023-02-03T16:53:44.347Z,48.30
2023-02-03T16:56:11.721Z,47.60
2023-02-03T16:58:39.381Z,47.70
2023-02-03T17:01:06.924Z,47.70
2023-02-03T17:03:34.436Z,47.70
2023-02-03T17:06:05.448Z,47.70
2023-02-03T17:08:32.707Z,47.70
2023-02-03T17:11:06.367Z,47.90
2023-02-03T17:13:33.306Z,47.70
2023-02-03T17:16:08.075Z,47.70
2023-02-03T17:18:36.186Z,47.90
2023-02-03T17:21:07.511Z,47.80
2023-02-03T17:23:34.255Z,47.90
2023-02-03T17:26:04.483Z,47.80
2023-02-03T17:28:32.841Z,47.90
2023-02-03T17:31:00.687Z,47.60
2023-02-03T17:33:27.936Z,48.00
2023-02-03T17:36:12.534Z,48.10
2023-02-03T17:55:33.876Z,46.80
2023-02-03T17:58:04.415Z,46.70
2023-02-03T18:00:32.074Z,46.60
2023-02-03T18:03:00.028Z,46.70
2023-02-03T18:05:28.904Z,46.50
2023-02-03T18:08:12.418Z,46.60
2023-02-03T18:10:43.523Z,46.50
2023-02-03T18:13:10.633Z,46.60
2023-02-03T18:15:38.525Z,46.50
2023-02-03T18:18:05.351Z,46.50
2023-02-03T18:20:32.828Z,46.60
2023-02-03T18:22:59.851Z,46.60
2023-02-03T18:25:26.737Z,46.50
2023-02-03T18:27:53.860Z,46.50
2023-02-03T18:30:21.845Z,46.60
2023-02-03T18:32:53.116Z,46.60
2023-02-03T18:35:20.158Z,46.50
2023-02-03T18:37:46.864Z,46.50
2023-02-03T18:40:13.879Z,46.50
2023-02-03T18:42:40.713Z,46.50
2023-02-03T18:45:07.928Z,46.50
2023-02-03T18:47:35.413Z,46.50
2023-02-03T18:50:07.823Z,46.60
2023-02-03T18:52:35.776Z,46.50
2023-02-03T18:55:02.754Z,46.50
2023-02-03T18:57:30.497Z,46.50
2023-02-03T18:59:57.742Z,46.50
2023-02-03T19:02:25.885Z,46.50
2023-02-03T19:05:02.213Z,46.50
2023-02-03T19:07:29.800Z,46.60
2023-02-03T19:09:56.932Z,46.60
2023-02-03T19:12:26.397Z,46.60
2023-02-03T19:14:53.504Z,46.60
2023-02-03T19:17:23.691Z,46.60
2023-02-03T19:19:50.839Z,46.70
2023-02-03T19:22:17.712Z,46.60
2023-02-03T19:24:44.778Z,46.70
2023-02-03T19:27:11.764Z,46.70
2023-02-03T19:29:48.072Z,46.60
2023-02-03T19:32:15.279Z,46.80
2023-02-03T19:34:42.144Z,46.70
2023-02-03T19:37:09.229Z,46.80
2023-02-03T19:39:38.047Z,46.80
2023-02-03T19:42:04.950Z,46.80
2023-02-03T19:44:34.621Z,46.80
2023-02-03T19:47:03.448Z,46.70
2023-02-03T19:49:30.448Z,46.90
2023-02-03T19:51:57.226Z,46.80
2023-02-03T19:54:23.963Z,46.90
2023-02-03T19:56:51.279Z,46.80
2023-02-03T19:59:19.528Z,46.80
2023-02-03T20:01:46.446Z,46.80
2023-02-03T20:04:13.355Z,46.80
2023-02-03T20:06:42.131Z,46.70
2023-02-03T20:09:10.371Z,46.70
2023-02-03T20:11:37.410Z,46.70
2023-02-03T20:14:05.033Z,46.80
2023-02-03T20:16:32.064Z,46.70
2023-02-03T20:19:01.061Z,46.60
2023-02-03T20:21:34.145Z,46.70
2023-02-03T20:24:01.124Z,47.30
2023-02-03T20:26:27.856Z,46.60
2023-02-03T20:28:54.816Z,46.60
2023-02-03T20:31:21.746Z,46.60
2023-02-03T20:33:48.618Z,46.60
2023-02-03T20:36:15.527Z,46.60
2023-02-03T20:38:48.920Z,46.60
2023-02-03T20:41:16.651Z,46.60
2023-02-03T20:43:43.712Z,46.60
2023-02-03T20:46:14.761Z,46.60
2023-02-03T20:48:44.278Z,46.60
2023-02-03T20:51:12.741Z,46.60
2023-02-03T20:53:39.874Z,46.60
2023-02-03T20:56:14.063Z,46.60
2023-02-03T20:58:41.396Z,46.60
2023-02-03T21:01:15.263Z,46.60
2023-02-03T21:04:00.835Z,46.60
2023-02-03T21:06:28.180Z,46.50
2023-02-03T21:08:55.191Z,46.60
2023-02-03T21:11:26.931Z,46.60
2023-02-03T21:13:53.743Z,46.60
2023-02-03T21:16:21.791Z,46.50
2023-02-03T21:18:50.414Z,46.50
2023-02-03T21:21:25.023Z,46.90
2023-02-03T21:23:52.160Z,46.60
2023-02-03T21:26:19.777Z,46.50
2023-02-03T21:28:56.274Z,46.50
2023-02-03T21:31:35.451Z,46.50
2023-02-03T21:34:03.223Z,46.50
2023-02-03T21:36:36.728Z,46.50
2023-02-03T21:39:03.574Z,46.40
2023-02-03T21:41:33.949Z,46.50
2023-02-03T21:44:01.074Z,46.40
2023-02-03T21:46:28.630Z,46.40
2023-02-03T21:48:55.976Z,46.50
2023-02-03T21:51:27.113Z,46.50
2023-02-03T21:53:55.549Z,46.50
2023-02-03T21:56:26.450Z,46.50
2023-02-03T21:58:54.203Z,46.30
2023-02-03T22:01:22.989Z,46.40
2023-02-03T22:03:51.520Z,46.50
2023-02-03T22:06:38.696Z,46.40
2023-02-03T22:09:05.420Z,46.30
2023-02-03T22:11:33.678Z,46.30
2023-02-03T22:14:00.972Z,46.30
2023-02-03T22:16:29.290Z,46.40
2023-02-03T22:18:56.119Z,46.40
2023-02-03T22:21:23.015Z,46.30
2023-02-03T22:23:49.856Z,46.30
2023-02-03T22:26:16.829Z,46.30
2023-02-03T22:28:45.544Z,46.30
2023-02-03T22:31:13.241Z,46.30
2023-02-03T22:33:40.785Z,46.30
2023-02-03T22:36:08.690Z,46.30
2023-02-03T22:38:35.669Z,46.90
2023-02-03T22:41:02.543Z,46.30
2023-02-03T22:43:31.044Z,46.40
2023-02-03T22:45:58.279Z,46.30
2023-02-03T22:48:25.166Z,46.30
2023-02-03T22:50:52.046Z,46.30
2023-02-03T22:53:18.774Z,47.00
2023-02-03T22:55:45.539Z,46.40
2023-02-03T22:58:12.290Z,46.30
2023-02-03T23:00:39.121Z,46.40
2023-02-03T23:03:06.180Z,46.40
2023-02-03T23:05:33.365Z,46.50
2023-02-03T23:08:00.461Z,46.40
2023-02-03T23:10:30.966Z,46.40
2023-02-03T23:12:58.571Z,46.50
2023-02-03T23:15:25.360Z,46.50
2023-02-03T23:17:52.285Z,46.40
2023-02-03T23:20:19.240Z,46.50
2023-02-03T23:22:45.951Z,46.40
2023-02-03T23:25:12.739Z,46.50
2023-02-03T23:27:42.731Z,46.40
2023-02-03T23:30:12.688Z,46.40
2023-02-03T23:32:39.445Z,47.10
2023-02-03T23:35:24.921Z,46.40
2023-02-03T23:37:51.665Z,46.50
2023-02-03T23:40:18.469Z,46.50
2023-02-03T23:42:45.286Z,46.50
2023-02-03T23:45:12.739Z,46.50
2023-02-03T23:47:46.091Z,46.40
2023-02-03T23:50:13.721Z,46.40
2023-02-03T23:52:40.492Z,46.40
2023-02-03T23:55:08.487Z,46.30
2023-02-03T23:57:35.244Z,46.30
